Time;durP1;ratioP1;P1;durP2;ratioP2;P2;SDS_P1;SDS_P2;PMS_P1;PMS_P2;Temp;Humidity;BMP_temperature;BMP_pressure;BME280_temperature;BME280_humidity;BME280_pressure;Samples;Min_cycle;Max_cycle;Signal;HPM_P1;HPM_P2
2022/08/17 00:01:56;;;;;;;4.00;3.60;;;;;;;;;;5071669;28;20372;-89
2022/08/17 00:04:22;;;;;;;4.00;3.70;;;;;;;;;;5071617;28;20380;-91
2022/08/17 00:06:49;;;;;;;4.00;3.70;;;;;;;;;;5070887;28;20414;-90
2022/08/17 00:09:16;;;;;;;3.90;3.60;;;;;;;;;;5071789;28;20489;-90
2022/08/17 00:11:43;;;;;;;3.87;3.57;;;;;;;;;;5071507;28;20379;-90
2022/08/17 00:14:14;;;;;;;3.73;3.37;;;;;;;;;;5071175;28;20368;-90
2022/08/17 00:16:45;;;;;;;3.80;3.60;;;;;;;;;;5071553;28;20372;-90
2022/08/17 00:19:12;;;;;;;3.67;3.30;;;;;;;;;;5071694;28;20399;-89
2022/08/17 00:21:39;;;;;;;3.70;3.40;;;;;;;;;;5073062;28;20376;-90
2022/08/17 00:24:05;;;;;;;3.88;3.63;;;;;;;;;;5075437;28;20380;-90
2022/08/17 00:26:31;;;;;;;3.58;3.28;;;;;;;;;;5075208;28;20434;-90
2022/08/17 00:28:58;;;;;;;3.63;3.33;;;;;;;;;;5075065;28;20427;-91
2022/08/17 00:31:24;;;;;;;3.38;3.17;;;;;;;;;;5075155;28;20466;-90
2022/08/17 00:33:50;;;;;;;3.90;3.53;;;;;;;;;;5074932;28;20376;-90
2022/08/17 00:36:16;;;;;;;3.58;3.28;;;;;;;;;;5075035;28;20424;-90
2022/08/17 00:38:43;;;;;;;3.90;3.60;;;;;;;;;;5074986;28;20380;-90
2022/08/17 00:41:18;;;;;;;3.70;3.40;;;;;;;;;;5056951;28;20907;-91
2022/08/17 00:43:44;;;;;;;3.40;3.13;;;;;;;;;;5074692;28;20480;-89
2022/08/17 00:46:13;;;;;;;3.90;3.60;;;;;;;;;;5056515;28;20494;-89
2022/08/17 00:48:39;;;;;;;3.65;3.40;;;;;;;;;;5074695;28;20461;-91
2022/08/17 00:51:09;;;;;;;4.15;3.75;;;;;;;;;;5074947;28;20732;-91
2022/08/17 00:53:38;;;;;;;4.03;3.72;;;;;;;;;;5056683;28;20462;-89
2022/08/17 00:56:05;;;;;;;3.55;3.22;;;;;;;;;;5056853;28;20391;-91
2022/08/17 00:58:32;;;;;;;4.05;3.75;;;;;;;;;;5056588;28;20426;-90
2022/08/17 01:01:00;;;;;;;3.92;3.63;;;;;;;;;;5074964;28;20403;-90
2022/08/17 01:03:26;;;;;;;3.80;3.40;;;;;;;;;;5074537;28;20383;-91
2022/08/17 01:05:54;;;;;;;3.95;3.65;;;;;;;;;;5056414;28;20749;-89
2022/08/17 01:08:23;;;;;;;3.90;3.60;;;;;;;;;;5074221;28;20410;-91
2022/08/17 01:10:52;;;;;;;4.05;3.65;;;;;;;;;;5056380;28;20387;-91
2022/08/17 01:13:18;;;;;;;3.83;3.53;;;;;;;;;;5056676;28;20380;-91
2022/08/17 01:15:52;;;;;;;3.65;3.35;;;;;;;;;;5074397;28;20387;-91
2022/08/17 01:18:19;;;;;;;3.70;3.40;;;;;;;;;;5056254;28;20383;-92
2022/08/17 01:20:48;;;;;;;3.97;3.67;;;;;;;;;;5074187;28;20384;-90
2022/08/17 01:23:14;;;;;;;3.92;3.60;;;;;;;;;;5074136;28;20473;-89
2022/08/17 01:25:41;;;;;;;3.95;3.65;;;;;;;;;;5055896;28;20380;-90
2022/08/17 01:28:07;;;;;;;4.00;3.50;;;;;;;;;;5055966;28;20407;-91
2022/08/17 01:30:33;;;;;;;3.90;3.60;;;;;;;;;;5074368;28;20368;-91
2022/08/17 01:32:59;;;;;;;3.80;3.50;;;;;;;;;;5074457;28;20388;-90
2022/08/17 01:35:25;;;;;;;4.00;3.55;;;;;;;;;;5073830;28;20368;-89
2022/08/17 01:37:51;;;;;;;3.88;3.58;;;;;;;;;;5073873;28;20371;-90
2022/08/17 01:40:32;;;;;;;4.05;3.75;;;;;;;;;;5073899;28;20407;-91
2022/08/17 01:43:06;;;;;;;3.50;3.30;;;;;;;;;;5073749;28;20376;-90
2022/08/17 01:45:33;;;;;;;3.85;3.55;;;;;;;;;;5057996;28;20398;-90
2022/08/17 01:48:00;;;;;;;4.00;3.70;;;;;;;;;;5073690;28;20410;-90
2022/08/17 01:50:27;;;;;;;4.10;3.70;;;;;;;;;;5073554;28;20378;-91
2022/08/17 01:52:56;;;;;;;3.87;3.57;;;;;;;;;;5055619;28;20741;-91
2022/08/17 01:55:26;;;;;;;4.18;3.80;;;;;;;;;;5055463;28;20817;-90
2022/08/17 01:57:52;;;;;;;3.67;3.40;;;;;;;;;;5055374;28;20860;-90
2022/08/17 02:00:18;;;;;;;4.10;3.80;;;;;;;;;;5073571;28;20419;-92
2022/08/17 02:02:44;;;;;;;3.92;3.63;;;;;;;;;;5055241;28;20925;-91
2022/08/17 02:05:11;;;;;;;4.40;4.00;;;;;;;;;;5073159;28;20446;-89
2022/08/17 02:07:37;;;;;;;3.83;3.53;;;;;;;;;;5072806;28;20399;-90
2022/08/17 02:10:04;;;;;;;4.50;3.88;;;;;;;;;;5055470;28;20396;-90
2022/08/17 02:12:31;;;;;;;3.72;3.53;;;;;;;;;;5062490;28;20889;-92
2022/08/17 02:14:57;;;;;;;3.80;3.50;;;;;;;;;;5056406;28;20451;-90
2022/08/17 02:17:23;;;;;;;3.53;3.22;;;;;;;;;;5071147;28;20392;-90
2022/08/17 02:19:49;;;;;;;4.00;3.60;;;;;;;;;;5071535;28;20412;-91
2022/08/17 02:22:17;;;;;;;4.10;3.70;;;;;;;;;;5072166;28;20714;-89
2022/08/17 02:24:43;;;;;;;4.87;4.47;;;;;;;;;;5073044;28;20464;-89
2022/08/17 02:27:09;;;;;;;4.95;4.55;;;;;;;;;;5072587;28;20459;-90
2022/08/17 02:29:36;;;;;;;5.97;4.60;;;;;;;;;;5072879;28;20869;-90
2022/08/17 02:32:02;;;;;;;4.53;4.22;;;;;;;;;;5055121;28;20395;-90
2022/08/17 02:34:28;;;;;;;4.60;4.20;;;;;;;;;;5072852;28;20387;-91
2022/08/17 02:36:54;;;;;;;4.88;4.47;;;;;;;;;;5072780;28;20498;-90
2022/08/17 02:39:20;;;;;;;4.53;4.22;;;;;;;;;;5072902;28;20375;-90
2022/08/17 02:41:47;;;;;;;4.17;3.87;;;;;;;;;;5072276;28;20470;-90
2022/08/17 02:44:13;;;;;;;4.50;4.10;;;;;;;;;;5072144;28;20384;-90
2022/08/17 02:46:39;;;;;;;4.20;3.77;;;;;;;;;;5072067;28;20757;-90
2022/08/17 02:49:05;;;;;;;4.28;3.97;;;;;;;;;;5054488;28;20411;-91
2022/08/17 02:51:31;;;;;;;4.45;4.05;;;;;;;;;;5072464;28;20386;-90
2022/08/17 02:53:57;;;;;;;4.88;4.07;;;;;;;;;;5072357;28;20379;-90
2022/08/17 02:56:23;;;;;;;4.70;4.30;;;;;;;;;;5054363;28;20463;-90
2022/08/17 02:58:49;;;;;;;4.38;3.97;;;;;;;;;;5054420;28;20756;-88
2022/08/17 03:01:15;;;;;;;4.20;3.80;;;;;;;;;;5072448;28;20390;-90
2022/08/17 03:03:41;;;;;;;4.30;4.00;;;;;;;;;;5072233;28;20380;-89
2022/08/17 03:06:08;;;;;;;4.55;4.20;;;;;;;;;;5072130;28;20378;-90
2022/08/17 03:08:36;;;;;;;4.57;4.18;;;;;;;;;;5072096;28;20515;-92
2022/08/17 03:11:02;;;;;;;4.57;3.83;;;;;;;;;;5072139;28;20396;-90
2022/08/17 03:13:29;;;;;;;4.30;3.90;;;;;;;;;;5054248;28;20376;-90
2022/08/17 03:15:55;;;;;;;4.30;4.00;;;;;;;;;;5072050;28;20418;-89
2022/08/17 03:18:22;;;;;;;4.40;4.10;;;;;;;;;;5072127;28;20387;-91
2022/08/17 03:20:48;;;;;;;4.38;3.97;;;;;;;;;;5071941;28;20372;-90
2022/08/17 03:23:14;;;;;;;3.90;3.65;;;;;;;;;;5072326;28;20493;-90
2022/08/17 03:25:41;;;;;;;3.70;3.50;;;;;;;;;;5054238;28;20455;-92
2022/08/17 03:28:08;;;;;;;4.10;3.70;;;;;;;;;;5074428;28;20414;-90
2022/08/17 03:30:34;;;;;;;4.10;3.80;;;;;;;;;;5071903;28;20376;-89
2022/08/17 03:33:01;;;;;;;3.60;3.40;;;;;;;;;;5072030;28;20383;-89
2022/08/17 03:35:29;;;;;;;3.95;3.65;;;;;;;;;;5071883;28;20379;-91
2022/08/17 03:37:56;;;;;;;4.10;3.80;;;;;;;;;;5072156;28;20379;-90
2022/08/17 03:40:22;;;;;;;4.20;3.90;;;;;;;;;;5083934;28;20381;-89
2022/08/17 03:42:51;;;;;;;4.30;3.90;;;;;;;;;;5068149;28;20390;-89
2022/08/17 03:56:40;;;;;;;4.32;3.92;;;;;;;;;;5071817;28;20398;-90
2022/08/17 03:56:42;;;;;;;4.10;3.90;;;;;;;;;;5065296;28;20432;-91
2022/08/17 03:59:09;;;;;;;4.60;4.20;;;;;;;;;;5066307;28;20380;-91
2022/08/17 04:01:35;;;;;;;4.20;3.90;;;;;;;;;;5074126;28;21884;-90
2022/08/17 04:04:01;;;;;;;4.40;4.00;;;;;;;;;;5075713;28;20388;-92
2022/08/17 04:06:27;;;;;;;4.30;3.90;;;;;;;;;;5075405;28;20440;-90
2022/08/17 04:08:53;;;;;;;5.30;4.20;;;;;;;;;;5075529;28;20730;-90
2022/08/17 04:11:19;;;;;;;4.20;3.80;;;;;;;;;;5056912;28;20380;-91
2022/08/17 04:13:45;;;;;;;4.07;3.77;;;;;;;;;;5057481;28;20399;-90
2022/08/17 04:16:11;;;;;;;4.37;3.97;;;;;;;;;;5057443;28;20460;-91
2022/08/17 04:18:37;;;;;;;4.22;3.92;;;;;;;;;;5075327;28;20379;-89
2022/08/17 04:21:03;;;;;;;4.65;4.25;;;;;;;;;;5057587;28;20391;-90
2022/08/17 04:23:32;;;;;;;3.95;3.65;;;;;;;;;;5075197;28;20388;-90
2022/08/17 04:25:58;;;;;;;4.20;3.90;;;;;;;;;;5075142;28;20896;-91
2022/08/17 04:28:24;;;;;;;4.20;3.80;;;;;;;;;;5057379;28;20462;-89
2022/08/17 04:30:50;;;;;;;4.45;4.07;;;;;;;;;;5075098;28;20380;-90
2022/08/17 04:33:18;;;;;;;4.35;4.05;;;;;;;;;;5075120;28;20448;-90
2022/08/17 04:35:46;;;;;;;4.30;4.00;;;;;;;;;;5074861;28;20380;-91
2022/08/17 04:38:15;;;;;;;4.50;4.10;;;;;;;;;;5074892;28;20376;-90
2022/08/17 04:43:27;;;;;;;4.22;3.92;;;;;;;;;;5062350;28;20390;-90
2022/08/17 04:45:57;;;;;;;4.20;3.90;;;;;;;;;;5074844;28;20877;-91
2022/08/17 04:48:25;;;;;;;4.63;4.22;;;;;;;;;;5074876;28;20498;-90
2022/08/17 04:50:51;;;;;;;4.40;4.10;;;;;;;;;;5074666;28;20382;-90
2022/08/17 04:53:18;;;;;;;4.63;4.23;;;;;;;;;;5074684;28;20429;-90
2022/08/17 04:55:44;;;;;;;4.50;4.20;;;;;;;;;;5056606;28;20376;-92
2022/08/17 04:58:10;;;;;;;4.70;4.30;;;;;;;;;;5074618;28;20387;-91
2022/08/17 05:00:38;;;;;;;4.60;4.28;;;;;;;;;;5075041;28;20392;-90
2022/08/17 05:03:04;;;;;;;4.40;4.10;;;;;;;;;;5056462;28;20513;-91
2022/08/17 05:05:31;;;;;;;4.70;4.30;;;;;;;;;;5056369;28;20891;-88
2022/08/17 05:07:59;;;;;;;4.88;4.38;;;;;;;;;;5073485;28;20898;-90
2022/08/17 05:10:26;;;;;;;4.57;4.18;;;;;;;;;;5074346;28;20383;-89
2022/08/17 05:13:01;;;;;;;4.70;4.40;;;;;;;;;;5074402;28;20372;-88
2022/08/17 05:15:28;;;;;;;4.80;4.30;;;;;;;;;;5056129;28;20459;-89
2022/08/17 05:17:54;;;;;;;4.45;4.00;;;;;;;;;;5073881;28;20473;-89
2022/08/17 05:20:20;;;;;;;4.28;3.88;;;;;;;;;;5074164;28;20376;-88
2022/08/17 05:22:51;;;;;;;4.15;3.85;;;;;;;;;;5067318;28;20387;-89
2022/08/17 05:25:20;;;;;;;4.28;3.90;;;;;;;;;;5076487;28;20375;-88
2022/08/17 05:27:46;;;;;;;4.38;3.97;;;;;;;;;;5073771;28;20418;-88
2022/08/17 05:30:13;;;;;;;4.43;4.10;;;;;;;;;;5073911;28;20371;-88
2022/08/17 05:32:39;;;;;;;4.30;3.90;;;;;;;;;;5073673;28;20392;-87
2022/08/17 05:35:05;;;;;;;4.28;3.88;;;;;;;;;;5073777;28;20386;-89
2022/08/17 05:37:32;;;;;;;4.30;3.60;;;;;;;;;;5073792;28;20387;-88
2022/08/17 05:39:58;;;;;;;4.07;3.78;;;;;;;;;;5075764;28;20380;-89
2022/08/17 05:42:24;;;;;;;3.88;3.35;;;;;;;;;;5076856;28;20376;-90
2022/08/17 05:44:50;;;;;;;4.27;3.87;;;;;;;;;;5073510;28;20979;-89
2022/08/17 05:47:17;;;;;;;4.20;3.80;;;;;;;;;;5055631;28;20411;-89
2022/08/17 05:49:43;;;;;;;4.50;4.20;;;;;;;;;;5073567;28;20402;-89
2022/08/17 05:52:24;;;;;;;4.68;4.32;;;;;;;;;;5073618;28;20440;-89
2022/08/17 05:54:59;;;;;;;7.18;4.40;;;;;;;;;;5071177;28;20379;-89
2022/08/17 05:57:34;;;;;;;4.32;4.00;;;;;;;;;;5073773;28;20467;-89
2022/08/17 06:00:21;;;;;;;4.55;4.15;;;;;;;;;;5072332;28;20388;-89
2022/08/17 06:02:47;;;;;;;4.22;3.92;;;;;;;;;;5072488;28;20852;-90
2022/08/17 06:05:13;;;;;;;4.30;3.97;;;;;;;;;;5072851;28;20383;-90
2022/08/17 06:07:48;;;;;;;4.37;3.83;;;;;;;;;;5073294;28;20415;-89
2022/08/17 06:10:31;;;;;;;6.72;4.03;;;;;;;;;;5072975;28;20474;-88
2022/08/17 06:13:16;;;;;;;7.63;4.10;;;;;;;;;;5073185;28;20448;-88
2022/08/17 06:15:48;;;;;;;4.20;3.83;;;;;;;;;;5073140;28;20459;-91
2022/08/17 06:18:16;;;;;;;4.50;3.88;;;;;;;;;;5073200;28;20383;-90
2022/08/17 06:20:49;;;;;;;5.85;4.05;;;;;;;;;;5072976;28;20382;-88
2022/08/17 06:23:29;;;;;;;3.83;3.53;;;;;;;;;;5073194;28;20415;-89
2022/08/17 06:25:58;;;;;;;4.63;4.20;;;;;;;;;;5054944;28;21011;-90
2022/08/17 06:28:29;;;;;;;4.30;3.90;;;;;;;;;;5072763;28;20403;-90
2022/08/17 06:30:59;;;;;;;5.77;4.33;;;;;;;;;;5072880;28;20857;-89
2022/08/17 06:33:31;;;;;;;5.15;3.92;;;;;;;;;;5073089;28;20372;-88
2022/08/17 06:36:09;;;;;;;4.60;4.20;;;;;;;;;;5073039;28;20372;-89
2022/08/17 06:38:41;;;;;;;4.22;3.80;;;;;;;;;;5072643;28;20444;-89
2022/08/17 06:41:11;;;;;;;4.97;3.90;;;;;;;;;;5072741;28;20386;-88
2022/08/17 06:43:38;;;;;;;3.90;3.60;;;;;;;;;;5072611;28;20479;-88
2022/08/17 06:46:10;;;;;;;4.07;3.78;;;;;;;;;;5072075;28;20404;-89
2022/08/17 06:48:39;;;;;;;4.38;3.97;;;;;;;;;;5068792;28;20490;-88
2022/08/17 06:51:17;;;;;;;4.03;3.72;;;;;;;;;;5072279;28;20383;-88
2022/08/17 06:53:58;;;;;;;4.43;4.13;;;;;;;;;;5071897;28;20395;-89
2022/08/17 06:56:31;;;;;;;4.68;4.28;;;;;;;;;;5072440;28;20376;-89
2022/08/17 06:58:58;;;;;;;5.65;5.15;;;;;;;;;;5072598;28;20384;-90
2022/08/17 07:01:28;;;;;;;5.00;4.70;;;;;;;;;;5070060;28;20452;-88
2022/08/17 07:04:12;;;;;;;5.30;4.90;;;;;;;;;;5069811;28;20433;-88
2022/08/17 07:06:41;;;;;;;5.35;4.95;;;;;;;;;;5071901;28;20379;-89
2022/08/17 07:09:12;;;;;;;6.20;5.70;;;;;;;;;;5072374;28;20445;-88
2022/08/17 07:11:43;;;;;;;5.28;4.80;;;;;;;;;;5072646;28;20406;-90
2022/08/17 07:14:28;;;;;;;5.25;4.75;;;;;;;;;;5072436;28;20422;-89
2022/08/17 07:16:56;;;;;;;4.70;4.22;;;;;;;;;;5072131;28;20406;-88
2022/08/17 07:19:24;;;;;;;5.28;4.75;;;;;;;;;;5082040;28;20431;-89
2022/08/17 07:22:09;;;;;;;5.43;4.90;;;;;;;;;;5076145;28;20391;-88
2022/08/17 07:24:38;;;;;;;6.03;5.50;;;;;;;;;;5071742;28;20463;-88
2022/08/17 07:27:09;;;;;;;5.55;5.07;;;;;;;;;;5072022;28;20384;-88
2022/08/17 07:29:43;;;;;;;5.32;4.82;;;;;;;;;;5053856;28;20408;-87
2022/08/17 07:32:10;;;;;;;6.30;5.70;;;;;;;;;;5071434;28;20498;-88
2022/08/17 07:34:56;;;;;;;5.68;5.28;;;;;;;;;;5071070;28;20463;-88
2022/08/17 07:37:22;;;;;;;5.50;5.00;;;;;;;;;;5062271;28;20509;-88
2022/08/17 07:39:48;;;;;;;5.65;5.03;;;;;;;;;;5070129;28;20408;-87
2022/08/17 07:42:14;;;;;;;4.70;4.30;;;;;;;;;;5071490;28;20463;-86
2022/08/17 07:44:49;;;;;;;5.40;4.90;;;;;;;;;;5070574;28;20856;-85
2022/08/17 07:50:00;;;;;;;4.97;4.57;;;;;;;;;;5070834;28;20379;-86
2022/08/17 07:52:29;;;;;;;5.38;4.75;;;;;;;;;;5071212;28;20379;-86
2022/08/17 07:54:55;;;;;;;5.22;4.75;;;;;;;;;;5071642;28;20831;-86
2022/08/17 07:57:22;;;;;;;5.07;4.68;;;;;;;;;;5071926;28;20384;-87
2022/08/17 08:00:01;;;;;;;5.00;4.60;;;;;;;;;;5071777;28;20493;-86
2022/08/17 08:02:31;;;;;;;9.93;5.75;;;;;;;;;;5071723;28;20387;-86
2022/08/17 08:05:00;;;;;;;4.63;4.30;;;;;;;;;;5071909;28;20375;-87
2022/08/17 08:07:42;;;;;;;5.05;4.45;;;;;;;;;;5071548;28;20452;-87
2022/08/17 08:10:13;;;;;;;4.55;4.15;;;;;;;;;;5071241;28;20376;-87
2022/08/17 08:12:47;;;;;;;4.82;4.43;;;;;;;;;;5071698;28;20379;-87
2022/08/17 08:15:17;;;;;;;4.38;3.97;;;;;;;;;;5071411;28;20406;-87
2022/08/17 08:17:52;;;;;;;4.60;3.90;;;;;;;;;;5071605;28;20868;-86
2022/08/17 08:20:20;;;;;;;4.93;4.53;;;;;;;;;;5071774;28;20383;-87
2022/08/17 08:22:57;;;;;;;4.30;4.00;;;;;;;;;;5071474;28;20384;-87
2022/08/17 08:25:36;;;;;;;4.57;4.18;;;;;;;;;;5071478;28;20410;-85
2022/08/17 08:28:16;;;;;;;5.18;3.90;;;;;;;;;;5071454;28;20465;-87
2022/08/17 08:30:47;;;;;;;4.45;4.05;;;;;;;;;;5071336;28;20379;-86
2022/08/17 08:33:16;;;;;;;4.72;4.32;;;;;;;;;;5071351;28;20376;-87
2022/08/17 08:35:46;;;;;;;5.80;4.10;;;;;;;;;;5071199;28;20376;-87
2022/08/17 08:38:21;;;;;;;4.60;4.20;;;;;;;;;;5071345;28;20384;-87
2022/08/17 08:40:50;;;;;;;4.78;4.28;;;;;;;;;;5071274;28;20387;-87
2022/08/17 08:43:16;;;;;;;4.50;4.20;;;;;;;;;;5072115;28;20384;-87
2022/08/17 08:46:05;;;;;;;4.50;4.10;;;;;;;;;;5074593;28;20461;-87
2022/08/17 08:48:54;;;;;;;4.18;3.88;;;;;;;;;;5074440;28;20411;-88
2022/08/17 08:51:38;;;;;;;4.32;3.90;;;;;;;;;;5074746;28;20380;-86
2022/08/17 08:54:30;;;;;;;4.30;3.90;;;;;;;;;;5074611;28;20464;-88
2022/08/17 08:57:10;;;;;;;4.00;3.70;;;;;;;;;;5075019;28;20372;-86
2022/08/17 08:59:55;;;;;;;4.53;4.13;;;;;;;;;;5074713;28;20434;-86
2022/08/17 09:02:24;;;;;;;4.47;3.97;;;;;;;;;;5074477;28;20424;-86
2022/08/17 09:05:03;;;;;;;4.25;3.90;;;;;;;;;;5074352;28;20379;-87
2022/08/17 09:07:40;;;;;;;4.82;3.83;;;;;;;;;;5074564;28;20482;-87
2022/08/17 09:10:21;;;;;;;4.18;3.70;;;;;;;;;;5074349;28;20383;-86
2022/08/17 09:12:47;;;;;;;3.95;3.65;;;;;;;;;;5074529;28;20383;-87
2022/08/17 09:15:24;;;;;;;4.23;3.43;;;;;;;;;;5074205;28;20368;-87
2022/08/17 09:18:08;;;;;;;3.70;3.50;;;;;;;;;;5074342;28;20375;-87
2022/08/17 09:20:46;;;;;;;3.70;3.40;;;;;;;;;;5073743;28;20375;-87
2022/08/17 09:23:25;;;;;;;3.75;3.45;;;;;;;;;;5074184;28;20384;-86
2022/08/17 09:25:57;;;;;;;3.75;3.38;;;;;;;;;;5076683;28;20418;-86
2022/08/17 09:28:28;;;;;;;4.10;3.70;;;;;;;;;;5074017;28;20458;-87
2022/08/17 09:31:01;;;;;;;3.72;3.45;;;;;;;;;;5073867;28;20438;-87
2022/08/17 09:33:27;;;;;;;3.67;3.28;;;;;;;;;;5074397;28;20404;-87
2022/08/17 09:35:56;;;;;;;3.60;3.15;;;;;;;;;;5073804;28;20415;-87
2022/08/17 09:38:22;;;;;;;3.55;3.20;;;;;;;;;;5074293;28;20387;-87
2022/08/17 09:40:52;;;;;;;3.97;3.40;;;;;;;;;;5073843;28;20412;-87
2022/08/17 09:43:38;;;;;;;3.53;3.22;;;;;;;;;;5073896;28;20380;-87
2022/08/17 09:46:10;;;;;;;3.17;2.88;;;;;;;;;;5073732;28;20403;-86
2022/08/17 09:48:57;;;;;;;3.00;2.80;;;;;;;;;;5058340;28;20427;-86
2022/08/17 09:51:38;;;;;;;3.55;2.97;;;;;;;;;;5073832;28;20741;-86
2022/08/17 09:54:06;;;;;;;3.28;2.97;;;;;;;;;;5073144;28;20954;-87
2022/08/17 09:56:34;;;;;;;3.28;2.97;;;;;;;;;;5073583;28;20388;-87
2022/08/17 09:59:19;;;;;;;3.70;2.70;;;;;;;;;;5073520;28;20458;-86
2022/08/17 10:01:54;;;;;;;3.17;2.90;;;;;;;;;;5073668;28;20386;-87
2022/08/17 10:04:40;;;;;;;3.03;2.83;;;;;;;;;;5073510;28;20887;-88
2022/08/17 10:07:06;;;;;;;3.00;2.80;;;;;;;;;;5072896;28;20387;-86
2022/08/17 10:09:55;;;;;;;3.42;2.78;;;;;;;;;;5073263;28;20400;-87
2022/08/17 10:12:33;;;;;;;3.13;2.83;;;;;;;;;;5073281;28;20462;-88
2022/08/17 10:15:14;;;;;;;2.95;2.70;;;;;;;;;;5073206;28;20397;-86
2022/08/17 10:18:06;;;;;;;3.58;2.70;;;;;;;;;;5055228;28;20753;-87
2022/08/17 10:20:51;;;;;;;2.70;2.50;;;;;;;;;;5064153;28;20376;-87
2022/08/17 10:26:24;;;;;;;3.40;2.63;;;;;;;;;;5073007;28;20422;-86
2022/08/17 10:29:00;;;;;;;2.65;2.45;;;;;;;;;;5072780;28;20411;-88
2022/08/17 10:31:29;;;;;;;2.60;2.42;;;;;;;;;;5073311;28;20437;-87
2022/08/17 10:34:07;;;;;;;2.50;2.33;;;;;;;;;;5072690;28;20368;-86
2022/08/17 10:36:39;;;;;;;2.67;2.30;;;;;;;;;;5072767;28;20372;-86
2022/08/17 10:39:14;;;;;;;3.00;2.65;;;;;;;;;;5072930;28;20448;-86
2022/08/17 10:41:45;;;;;;;2.45;2.35;;;;;;;;;;5072798;28;20384;-86
2022/08/17 10:44:17;;;;;;;4.10;2.40;;;;;;;;;;5072808;28;20371;-87
2022/08/17 10:47:02;;;;;;;2.70;2.50;;;;;;;;;;5072687;28;20423;-88
2022/08/17 10:49:32;;;;;;;2.40;2.20;;;;;;;;;;5054623;28;20479;-86
2022/08/17 10:52:00;;;;;;;3.65;2.50;;;;;;;;;;5072855;28;20455;-87
2022/08/17 10:54:38;;;;;;;2.30;2.20;;;;;;;;;;5054521;28;20386;-86
2022/08/17 10:57:24;;;;;;;3.00;2.38;;;;;;;;;;5072611;28;20454;-86
2022/08/17 10:59:51;;;;;;;2.20;1.92;;;;;;;;;;5072372;28;20434;-87
2022/08/17 11:02:24;;;;;;;3.10;2.00;;;;;;;;;;5072469;28;20384;-87
2022/08/17 11:04:56;;;;;;;2.33;2.17;;;;;;;;;;5072190;28;20383;-86
2022/08/17 11:07:42;;;;;;;2.55;2.03;;;;;;;;;;5071548;28;20399;-86
2022/08/17 11:10:25;;;;;;;2.80;2.33;;;;;;;;;;5072324;28;20441;-87
2022/08/17 11:12:59;;;;;;;2.50;2.30;;;;;;;;;;5054609;28;20380;-88
2022/08/17 11:15:44;;;;;;;3.08;2.33;;;;;;;;;;5072245;28;20415;-86
2022/08/17 11:18:10;;;;;;;2.47;2.00;;;;;;;;;;5072363;28;20404;-87
2022/08/17 11:20:54;;;;;;;2.47;2.28;;;;;;;;;;5072151;28;20390;-85
2022/08/17 11:23:33;;;;;;;2.45;2.30;;;;;;;;;;5072298;28;20857;-85
2022/08/17 11:26:07;;;;;;;2.25;1.98;;;;;;;;;;5081816;28;20378;-86
2022/08/17 11:28:35;;;;;;;2.27;2.07;;;;;;;;;;5077438;28;20469;-88
2022/08/17 11:31:06;;;;;;;2.92;2.20;;;;;;;;;;5072111;28;20375;-86
2022/08/17 11:33:32;;;;;;;2.45;2.25;;;;;;;;;;5072227;28;20368;-86
2022/08/17 11:36:02;;;;;;;3.58;2.17;;;;;;;;;;5071980;28;20403;-86
2022/08/17 11:38:52;;;;;;;2.40;2.20;;;;;;;;;;5072307;28;20379;-86
2022/08/17 11:41:27;;;;;;;2.50;2.30;;;;;;;;;;5071964;28;20856;-86
2022/08/17 11:43:54;;;;;;;2.42;2.22;;;;;;;;;;5071904;28;20869;-87
2022/08/17 11:46:20;;;;;;;2.20;2.00;;;;;;;;;;5071832;28;20391;-86
2022/08/17 11:51:55;;;;;;;2.70;2.10;;;;;;;;;;5071917;28;20414;-86
2022/08/17 11:54:31;;;;;;;2.33;2.10;;;;;;;;;;5056200;28;20795;-85
2022/08/17 11:56:58;;;;;;;2.17;2.08;;;;;;;;;;5058489;28;20407;-85
2022/08/17 11:59:38;;;;;;;2.42;2.22;;;;;;;;;;5071923;28;20382;-86
2022/08/17 12:02:20;;;;;;;2.40;2.20;;;;;;;;;;5071749;28;20387;-85
2022/08/17 12:05:05;;;;;;;2.50;2.30;;;;;;;;;;5070737;28;20380;-85
2022/08/17 12:07:32;;;;;;;2.40;2.20;;;;;;;;;;5071586;28;20378;-86
2022/08/17 12:09:59;;;;;;;2.22;2.03;;;;;;;;;;5071786;28;20459;-86
2022/08/17 12:12:34;;;;;;;2.10;2.00;;;;;;;;;;5071715;28;20868;-85
2022/08/17 12:15:00;;;;;;;2.28;2.08;;;;;;;;;;5071881;28;20850;-85
2022/08/17 12:17:28;;;;;;;3.00;2.10;;;;;;;;;;5073184;28;20376;-86
2022/08/17 12:19:54;;;;;;;2.58;1.98;;;;;;;;;;5075458;28;20406;-86
2022/08/17 12:22:30;;;;;;;1.80;1.70;;;;;;;;;;5075312;28;20433;-86
2022/08/17 12:25:22;;;;;;;3.90;3.47;;;;;;;;;;5073082;28;20411;-82
2022/08/17 12:27:49;;;;;;;1.90;1.80;;;;;;;;;;5072115;28;20893;-82
2022/08/17 12:30:18;;;;;;;2.22;2.03;;;;;;;;;;5073596;28;20384;-83
2022/08/17 12:32:46;;;;;;;2.30;2.10;;;;;;;;;;5073578;28;20380;-83
2022/08/17 12:35:18;;;;;;;2.20;2.10;;;;;;;;;;5074064;28;20387;-83
2022/08/17 12:37:46;;;;;;;2.55;2.25;;;;;;;;;;5074922;28;20444;-83
2022/08/17 12:40:23;;;;;;;2.45;2.00;;;;;;;;;;5074657;28;20376;-83
2022/08/17 12:42:57;;;;;;;2.25;1.90;;;;;;;;;;5074929;28;20496;-82
2022/08/17 12:45:29;;;;;;;2.20;2.00;;;;;;;;;;5074917;28;20474;-83
2022/08/17 12:48:06;;;;;;;2.58;1.98;;;;;;;;;;5074241;28;20418;-81
2022/08/17 12:50:33;;;;;;;2.20;2.00;;;;;;;;;;5074123;28;20395;-84
2022/08/17 12:52:59;;;;;;;2.38;2.00;;;;;;;;;;5071190;28;20379;-83
2022/08/17 12:55:25;;;;;;;1.95;1.85;;;;;;;;;;5070675;28;20387;-83
2022/08/17 12:57:53;;;;;;;2.65;2.03;;;;;;;;;;5080535;28;20399;-82
2022/08/17 13:00:28;;;;;;;3.50;2.17;;;;;;;;;;5075221;28;20415;-82
2022/08/17 13:02:57;;;;;;;2.30;2.05;;;;;;;;;;5074625;28;20466;-82
2022/08/17 13:05:26;;;;;;;2.40;2.20;;;;;;;;;;5074880;28;20525;-83
2022/08/17 13:07:53;;;;;;;2.30;1.90;;;;;;;;;;5074471;28;20456;-82
2022/08/17 13:10:20;;;;;;;2.30;2.10;;;;;;;;;;5074506;28;20767;-82
2022/08/17 13:12:49;;;;;;;2.58;1.98;;;;;;;;;;5056474;28;20392;-82
2022/08/17 13:15:23;;;;;;;2.65;2.20;;;;;;;;;;5071964;28;20388;-83
2022/08/17 13:17:56;;;;;;;2.40;2.30;;;;;;;;;;5071471;28;20396;-83
2022/08/17 13:20:22;;;;;;;3.92;2.15;;;;;;;;;;5073498;28;20380;-83
2022/08/17 13:22:52;;;;;;;1.80;1.70;;;;;;;;;;5082652;28;20387;-82
2022/08/17 13:25:19;;;;;;;3.20;2.10;;;;;;;;;;5078914;28;20376;-83
2022/08/17 13:27:46;;;;;;;2.20;2.00;;;;;;;;;;5072891;28;20441;-82
2022/08/17 13:30:13;;;;;;;3.78;2.20;;;;;;;;;;5081000;28;20370;-83
2022/08/17 13:32:41;;;;;;;2.30;2.10;;;;;;;;;;5073843;28;20865;-82
2022/08/17 13:35:25;;;;;;;1.90;1.80;;;;;;;;;;5073765;28;20391;-83
2022/08/17 13:38:08;;;;;;;2.30;2.08;;;;;;;;;;5074263;28;20464;-82
2022/08/17 13:40:40;;;;;;;2.73;2.00;;;;;;;;;;5073686;28;20733;-83
2022/08/17 13:43:07;;;;;;;2.55;2.10;;;;;;;;;;5073858;28;20877;-83
2022/08/17 13:45:37;;;;;;;2.40;2.05;;;;;;;;;;5073295;28;20501;-82
2022/08/17 13:48:09;;;;;;;2.50;2.30;;;;;;;;;;5073667;28;20403;-83
2022/08/17 13:50:36;;;;;;;2.70;2.30;;;;;;;;;;5073382;28;20376;-83
2022/08/17 13:53:03;;;;;;;2.45;2.25;;;;;;;;;;5065915;28;20897;-84
2022/08/17 13:55:30;;;;;;;3.10;2.20;;;;;;;;;;5082110;28;20375;-83
2022/08/17 13:57:57;;;;;;;2.95;2.67;;;;;;;;;;5070952;28;20380;-82
2022/08/17 14:00:28;;;;;;;2.80;2.20;;;;;;;;;;5070623;28;20379;-83
2022/08/17 14:02:54;;;;;;;2.55;2.35;;;;;;;;;;5071093;28;20872;-82
2022/08/17 14:05:20;;;;;;;2.63;2.30;;;;;;;;;;5072857;28;20398;-82
2022/08/17 14:07:47;;;;;;;3.58;2.60;;;;;;;;;;5073086;28;20391;-82
2022/08/17 14:10:14;;;;;;;3.22;2.60;;;;;;;;;;5073072;28;20411;-82
2022/08/17 14:12:42;;;;;;;2.60;2.40;;;;;;;;;;5073263;28;20433;-82
2022/08/17 14:15:08;;;;;;;2.80;2.50;;;;;;;;;;5068568;28;20386;-82
2022/08/17 14:17:34;;;;;;;2.83;2.53;;;;;;;;;;5072910;28;20372;-82
2022/08/17 14:20:00;;;;;;;6.30;2.60;;;;;;;;;;5072261;28;20446;-82
2022/08/17 14:22:31;;;;;;;2.80;2.28;;;;;;;;;;5072433;28;20574;-82
2022/08/17 14:24:58;;;;;;;2.40;2.20;;;;;;;;;;5072970;28;20379;-82
2022/08/17 14:27:26;;;;;;;2.85;2.60;;;;;;;;;;5072005;28;20375;-83
2022/08/17 14:29:53;;;;;;;2.60;2.40;;;;;;;;;;5064254;28;20503;-83
2022/08/17 14:32:21;;;;;;;3.83;2.40;;;;;;;;;;5072543;28;20376;-82
2022/08/17 14:34:48;;;;;;;2.47;2.28;;;;;;;;;;5072485;28;20868;-83
2022/08/17 14:37:14;;;;;;;2.40;2.20;;;;;;;;;;5072478;28;20386;-82
2022/08/17 14:39:40;;;;;;;2.30;2.10;;;;;;;;;;5072790;28;20380;-82
2022/08/17 14:42:10;;;;;;;3.00;2.60;;;;;;;;;;5072623;28;20433;-82
2022/08/17 14:44:37;;;;;;;3.35;2.25;;;;;;;;;;5072593;28;20875;-82
2022/08/17 14:47:03;;;;;;;2.60;2.40;;;;;;;;;;5072568;28;20889;-82
2022/08/17 14:49:30;;;;;;;3.80;2.45;;;;;;;;;;5072513;28;20880;-82
2022/08/17 14:51:56;;;;;;;4.38;2.38;;;;;;;;;;5072577;28;20375;-82
2022/08/17 14:54:22;;;;;;;2.28;2.08;;;;;;;;;;5072121;28;20375;-82
2022/08/17 14:56:48;;;;;;;3.78;2.20;;;;;;;;;;5072424;28;20401;-82
2022/08/17 14:59:15;;;;;;;2.40;2.20;;;;;;;;;;5072591;28;20387;-82
2022/08/17 15:01:41;;;;;;;3.90;2.43;;;;;;;;;;5072416;28;20400;-82
2022/08/17 15:04:17;;;;;;;2.53;2.33;;;;;;;;;;5072106;28;20387;-82
2022/08/17 15:06:45;;;;;;;2.42;2.22;;;;;;;;;;5070847;28;20517;-82
2022/08/17 15:09:11;;;;;;;3.78;2.50;;;;;;;;;;5072315;28;20480;-81
2022/08/17 15:11:39;;;;;;;2.60;2.40;;;;;;;;;;5072194;28;20408;-82
2022/08/17 15:14:05;;;;;;;2.60;2.40;;;;;;;;;;5071370;28;20388;-82
2022/08/17 15:16:34;;;;;;;2.72;2.50;;;;;;;;;;5071960;28;20744;-84
2022/08/17 15:19:01;;;;;;;2.60;2.42;;;;;;;;;;5072463;28;20868;-85
2022/08/17 15:21:27;;;;;;;3.33;2.27;;;;;;;;;;5072243;28;20811;-83
2022/08/17 15:23:53;;;;;;;2.83;2.40;;;;;;;;;;5074560;28;20814;-83